sensor_id;sensor_type;location;lat;lon;timestamp;P1;durP1;ratioP1;P2;durP2;ratioP2
30243;SDS011;64022;53.652;9.792;2022-10-29T00:01:11;15.27;;;8.10;;
30243;SDS011;64022;53.652;9.792;2022-10-29T00:03:37;12.70;;;8.10;;
30243;SDS011;64022;53.652;9.792;2022-10-29T00:06:04;11.87;;;7.50;;
30243;SDS011;64022;53.652;9.792;2022-10-29T00:08:31;14.48;;;8.75;;
30243;SDS011;64022;53.652;9.792;2022-10-29T00:13:32;14.85;;;8.43;;
30243;SDS011;64022;53.652;9.792;2022-10-29T00:15:58;12.83;;;7.30;;
30243;SDS011;64022;53.652;9.792;2022-10-29T00:18:23;12.50;;;7.30;;
30243;SDS011;64022;53.652;9.792;2022-10-29T00:20:48;11.40;;;7.80;;
30243;SDS011;64022;53.652;9.792;2022-10-29T00:23:14;13.00;;;7.03;;
30243;SDS011;64022;53.652;9.792;2022-10-29T00:25:39;10.20;;;6.73;;
30243;SDS011;64022;53.652;9.792;2022-10-29T00:28:05;10.57;;;7.13;;
30243;SDS011;64022;53.652;9.792;2022-10-29T00:30:30;11.50;;;7.00;;
30243;SDS011;64022;53.652;9.792;2022-10-29T00:32:56;11.60;;;7.83;;
30243;SDS011;64022;53.652;9.792;2022-10-29T00:35:21;11.67;;;7.77;;
30243;SDS011;64022;53.652;9.792;2022-10-29T00:37:47;11.60;;;7.47;;
30243;SDS011;64022;53.652;9.792;2022-10-29T00:40:12;11.27;;;8.17;;
30243;SDS011;64022;53.652;9.792;2022-10-29T00:42:38;11.50;;;8.17;;
30243;SDS011;64022;53.652;9.792;2022-10-29T00:45:04;12.13;;;7.17;;
30243;SDS011;64022;53.652;9.792;2022-10-29T00:47:30;13.00;;;7.38;;
30243;SDS011;64022;53.652;9.792;2022-10-29T00:50:09;9.90;;;7.03;;
30243;SDS011;64022;53.652;9.792;2022-10-29T00:55:05;12.38;;;7.03;;
30243;SDS011;64022;53.652;9.792;2022-10-29T00:57:37;10.80;;;7.10;;
30243;SDS011;64022;53.652;9.792;2022-10-29T01:00:05;12.48;;;7.65;;
30243;SDS011;64022;53.652;9.792;2022-10-29T01:02:31;11.00;;;7.60;;
30243;SDS011;64022;53.652;9.792;2022-10-29T01:04:59;11.82;;;7.53;;
30243;SDS011;64022;53.652;9.792;2022-10-29T01:07:27;10.13;;;7.30;;
30243;SDS011;64022;53.652;9.792;2022-10-29T01:09:53;10.50;;;6.67;;
30243;SDS011;64022;53.652;9.792;2022-10-29T01:12:26;9.73;;;6.97;;
30243;SDS011;64022;53.652;9.792;2022-10-29T01:16:03;9.68;;;6.60;;
30243;SDS011;64022;53.652;9.792;2022-10-29T01:31:43;11.70;;;7.80;;
30243;SDS011;64022;53.652;9.792;2022-10-29T01:36:53;9.95;;;6.70;;
30243;SDS011;64022;53.652;9.792;2022-10-29T01:42:05;11.50;;;7.20;;
30243;SDS011;64022;53.652;9.792;2022-10-29T01:44:53;9.75;;;6.95;;
30243;SDS011;64022;53.652;9.792;2022-10-29T01:47:35;10.55;;;7.13;;
30243;SDS011;64022;53.652;9.792;2022-10-29T01:50:12;11.75;;;7.20;;
30243;SDS011;64022;53.652;9.792;2022-10-29T01:52:42;10.07;;;6.75;;
30243;SDS011;64022;53.652;9.792;2022-10-29T01:55:09;9.63;;;6.43;;
30243;SDS011;64022;53.652;9.792;2022-10-29T01:57:36;11.53;;;6.60;;
30243;SDS011;64022;53.652;9.792;2022-10-29T02:00:09;10.65;;;7.05;;
30243;SDS011;64022;53.652;9.792;2022-10-29T02:07:50;9.50;;;6.68;;
30243;SDS011;64022;53.652;9.792;2022-10-29T02:10:19;9.77;;;6.55;;
30243;SDS011;64022;53.652;9.792;2022-10-29T02:12:48;11.63;;;7.07;;
30243;SDS011;64022;53.652;9.792;2022-10-29T02:15:34;9.20;;;6.15;;
30243;SDS011;64022;53.652;9.792;2022-10-29T02:18:06;8.18;;;6.15;;
30243;SDS011;64022;53.652;9.792;2022-10-29T02:20:33;9.45;;;6.47;;
30243;SDS011;64022;53.652;9.792;2022-10-29T02:22:59;8.75;;;6.45;;
30243;SDS011;64022;53.652;9.792;2022-10-29T02:25:25;8.63;;;6.67;;
30243;SDS011;64022;53.652;9.792;2022-10-29T02:27:52;9.70;;;6.50;;
30243;SDS011;64022;53.652;9.792;2022-10-29T02:30:18;10.00;;;6.53;;
30243;SDS011;64022;53.652;9.792;2022-10-29T02:32:43;10.03;;;5.93;;
30243;SDS011;64022;53.652;9.792;2022-10-29T02:35:09;9.33;;;6.60;;
30243;SDS011;64022;53.652;9.792;2022-10-29T02:37:35;9.93;;;6.60;;
30243;SDS011;64022;53.652;9.792;2022-10-29T02:40:01;9.07;;;5.88;;
30243;SDS011;64022;53.652;9.792;2022-10-29T02:42:28;9.95;;;6.68;;
30243;SDS011;64022;53.652;9.792;2022-10-29T02:44:53;8.27;;;5.73;;
30243;SDS011;64022;53.652;9.792;2022-10-29T02:47:19;9.10;;;7.00;;
30243;SDS011;64022;53.652;9.792;2022-10-29T02:49:44;8.43;;;5.97;;
30243;SDS011;64022;53.652;9.792;2022-10-29T02:52:10;9.57;;;6.60;;
30243;SDS011;64022;53.652;9.792;2022-10-29T02:54:35;8.03;;;6.30;;
30243;SDS011;64022;53.652;9.792;2022-10-29T02:57:01;7.47;;;5.37;;
30243;SDS011;64022;53.652;9.792;2022-10-29T02:59:26;10.70;;;6.20;;
30243;SDS011;64022;53.652;9.792;2022-10-29T03:01:52;8.87;;;6.30;;
30243;SDS011;64022;53.652;9.792;2022-10-29T03:04:17;9.57;;;6.23;;
30243;SDS011;64022;53.652;9.792;2022-10-29T03:06:43;8.93;;;6.03;;
30243;SDS011;64022;53.652;9.792;2022-10-29T03:09:08;8.50;;;5.97;;
30243;SDS011;64022;53.652;9.792;2022-10-29T03:11:34;8.07;;;5.83;;
30243;SDS011;64022;53.652;9.792;2022-10-29T03:13:59;9.47;;;6.13;;
30243;SDS011;64022;53.652;9.792;2022-10-29T03:16:25;9.80;;;6.53;;
30243;SDS011;64022;53.652;9.792;2022-10-29T03:18:50;10.23;;;6.07;;
30243;SDS011;64022;53.652;9.792;2022-10-29T03:21:16;8.80;;;5.57;;
30243;SDS011;64022;53.652;9.792;2022-10-29T03:23:41;11.17;;;6.20;;
30243;SDS011;64022;53.652;9.792;2022-10-29T03:26:07;8.13;;;5.50;;
30243;SDS011;64022;53.652;9.792;2022-10-29T03:28:34;8.55;;;5.70;;
30243;SDS011;64022;53.652;9.792;2022-10-29T03:31:00;7.20;;;5.37;;
30243;SDS011;64022;53.652;9.792;2022-10-29T03:33:25;10.70;;;5.87;;
30243;SDS011;64022;53.652;9.792;2022-10-29T03:35:58;9.00;;;6.03;;
30243;SDS011;64022;53.652;9.792;2022-10-29T03:38:24;9.18;;;5.93;;
30243;SDS011;64022;53.652;9.792;2022-10-29T03:40:51;7.90;;;5.73;;
30243;SDS011;64022;53.652;9.792;2022-10-29T03:43:17;9.45;;;6.18;;
30243;SDS011;64022;53.652;9.792;2022-10-29T03:45:42;7.57;;;5.38;;
30243;SDS011;64022;53.652;9.792;2022-10-29T03:48:08;9.47;;;6.07;;
30243;SDS011;64022;53.652;9.792;2022-10-29T03:50:33;6.77;;;5.27;;
30243;SDS011;64022;53.652;9.792;2022-10-29T03:52:59;8.60;;;5.50;;
30243;SDS011;64022;53.652;9.792;2022-10-29T03:55:24;9.67;;;5.43;;
30243;SDS011;64022;53.652;9.792;2022-10-29T03:57:53;8.07;;;5.60;;
30243;SDS011;64022;53.652;9.792;2022-10-29T04:00:18;8.60;;;5.27;;
30243;SDS011;64022;53.652;9.792;2022-10-29T04:02:44;7.90;;;5.70;;
30243;SDS011;64022;53.652;9.792;2022-10-29T04:05:09;7.17;;;5.47;;
30243;SDS011;64022;53.652;9.792;2022-10-29T04:07:35;7.97;;;5.03;;
30243;SDS011;64022;53.652;9.792;2022-10-29T04:10:00;6.53;;;5.10;;
30243;SDS011;64022;53.652;9.792;2022-10-29T04:12:26;8.87;;;5.67;;
30243;SDS011;64022;53.652;9.792;2022-10-29T04:14:51;9.20;;;5.80;;
30243;SDS011;64022;53.652;9.792;2022-10-29T04:17:17;8.10;;;5.83;;
30243;SDS011;64022;53.652;9.792;2022-10-29T04:19:42;7.73;;;5.53;;
30243;SDS011;64022;53.652;9.792;2022-10-29T04:22:08;7.33;;;5.17;;
30243;SDS011;64022;53.652;9.792;2022-10-29T04:24:34;8.17;;;5.53;;
30243;SDS011;64022;53.652;9.792;2022-10-29T04:26:59;8.90;;;5.27;;
30243;SDS011;64022;53.652;9.792;2022-10-29T04:29:25;7.37;;;5.10;;
30243;SDS011;64022;53.652;9.792;2022-10-29T04:31:50;8.00;;;5.70;;
30243;SDS011;64022;53.652;9.792;2022-10-29T04:34:16;9.33;;;6.20;;
30243;SDS011;64022;53.652;9.792;2022-10-29T04:36:41;7.70;;;5.40;;
30243;SDS011;64022;53.652;9.792;2022-10-29T04:39:07;7.37;;;5.23;;
30243;SDS011;64022;53.652;9.792;2022-10-29T04:41:32;8.70;;;5.70;;
30243;SDS011;64022;53.652;9.792;2022-10-29T04:43:58;8.27;;;5.03;;
30243;SDS011;64022;53.652;9.792;2022-10-29T04:46:25;7.30;;;5.15;;
30243;SDS011;64022;53.652;9.792;2022-10-29T04:48:50;7.30;;;4.93;;
30243;SDS011;64022;53.652;9.792;2022-10-29T04:51:23;8.20;;;5.30;;
30243;SDS011;64022;53.652;9.792;2022-10-29T04:53:50;7.93;;;5.38;;
30243;SDS011;64022;53.652;9.792;2022-10-29T04:56:15;6.93;;;4.63;;
30243;SDS011;64022;53.652;9.792;2022-10-29T04:58:41;7.43;;;5.10;;
30243;SDS011;64022;53.652;9.792;2022-10-29T05:01:06;7.07;;;4.93;;
30243;SDS011;64022;53.652;9.792;2022-10-29T05:03:32;8.53;;;5.30;;
30243;SDS011;64022;53.652;9.792;2022-10-29T05:06:05;6.28;;;4.63;;
30243;SDS011;64022;53.652;9.792;2022-10-29T05:08:31;8.38;;;5.43;;
30243;SDS011;64022;53.652;9.792;2022-10-29T05:10:57;7.80;;;4.70;;
30243;SDS011;64022;53.652;9.792;2022-10-29T05:13:26;7.80;;;4.65;;
30243;SDS011;64022;53.652;9.792;2022-10-29T05:15:51;7.93;;;4.80;;
30243;SDS011;64022;53.652;9.792;2022-10-29T05:18:18;9.80;;;4.60;;
30243;SDS011;64022;53.652;9.792;2022-10-29T05:20:43;10.67;;;5.00;;
30243;SDS011;64022;53.652;9.792;2022-10-29T05:23:09;8.03;;;5.27;;
30243;SDS011;64022;53.652;9.792;2022-10-29T05:25:36;10.95;;;5.20;;
30243;SDS011;64022;53.652;9.792;2022-10-29T05:28:06;8.20;;;5.35;;
30243;SDS011;64022;53.652;9.792;2022-10-29T05:30:39;8.27;;;5.20;;
30243;SDS011;64022;53.652;9.792;2022-10-29T05:33:08;8.98;;;5.10;;
30243;SDS011;64022;53.652;9.792;2022-10-29T05:35:34;13.05;;;6.57;;
30243;SDS011;64022;53.652;9.792;2022-10-29T05:38:00;10.20;;;5.30;;
30243;SDS011;64022;53.652;9.792;2022-10-29T05:40:26;10.38;;;5.13;;
30243;SDS011;64022;53.652;9.792;2022-10-29T05:42:52;11.00;;;5.73;;
30243;SDS011;64022;53.652;9.792;2022-10-29T05:45:18;13.40;;;6.03;;
30243;SDS011;64022;53.652;9.792;2022-10-29T05:47:43;9.60;;;4.80;;
30243;SDS011;64022;53.652;9.792;2022-10-29T05:50:09;12.40;;;5.23;;
30243;SDS011;64022;53.652;9.792;2022-10-29T05:52:36;12.65;;;5.05;;
30243;SDS011;64022;53.652;9.792;2022-10-29T05:55:02;11.20;;;4.97;;
30243;SDS011;64022;53.652;9.792;2022-10-29T05:57:28;8.98;;;5.00;;
30243;SDS011;64022;53.652;9.792;2022-10-29T05:59:54;7.80;;;5.27;;
30243;SDS011;64022;53.652;9.792;2022-10-29T06:02:19;10.07;;;4.70;;
30243;SDS011;64022;53.652;9.792;2022-10-29T06:04:45;11.60;;;5.13;;
30243;SDS011;64022;53.652;9.792;2022-10-29T06:07:10;10.47;;;5.03;;
30243;SDS011;64022;53.652;9.792;2022-10-29T06:09:36;8.90;;;4.33;;
30243;SDS011;64022;53.652;9.792;2022-10-29T06:12:01;10.23;;;4.67;;
30243;SDS011;64022;53.652;9.792;2022-10-29T06:14:27;7.40;;;4.87;;
30243;SDS011;64022;53.652;9.792;2022-10-29T06:16:52;9.93;;;4.77;;
30243;SDS011;64022;53.652;9.792;2022-10-29T06:19:18;12.03;;;5.03;;
30243;SDS011;64022;53.652;9.792;2022-10-29T06:21:44;8.60;;;4.63;;
30243;SDS011;64022;53.652;9.792;2022-10-29T06:24:09;10.23;;;4.90;;
30243;SDS011;64022;53.652;9.792;2022-10-29T06:26:35;9.43;;;4.83;;
30243;SDS011;64022;53.652;9.792;2022-10-29T06:29:04;12.70;;;5.32;;
30243;SDS011;64022;53.652;9.792;2022-10-29T06:31:29;11.90;;;5.47;;
30243;SDS011;64022;53.652;9.792;2022-10-29T06:33:55;10.47;;;5.47;;
30243;SDS011;64022;53.652;9.792;2022-10-29T06:36:20;15.30;;;5.20;;
30243;SDS011;64022;53.652;9.792;2022-10-29T06:38:46;12.13;;;5.77;;
30243;SDS011;64022;53.652;9.792;2022-10-29T06:41:12;10.50;;;5.17;;
30243;SDS011;64022;53.652;9.792;2022-10-29T06:43:38;9.32;;;5.20;;
30243;SDS011;64022;53.652;9.792;2022-10-29T06:46:04;10.20;;;4.87;;
30243;SDS011;64022;53.652;9.792;2022-10-29T06:48:29;8.37;;;4.73;;
30243;SDS011;64022;53.652;9.792;2022-10-29T06:50:56;13.00;;;5.60;;
30243;SDS011;64022;53.652;9.792;2022-10-29T06:53:23;13.68;;;4.95;;
30243;SDS011;64022;53.652;9.792;2022-10-29T06:55:49;11.83;;;5.60;;
30243;SDS011;64022;53.652;9.792;2022-10-29T06:58:15;11.13;;;5.20;;
30243;SDS011;64022;53.652;9.792;2022-10-29T07:00:42;12.57;;;5.00;;
30243;SDS011;64022;53.652;9.792;2022-10-29T07:03:11;15.90;;;6.03;;
30243;SDS011;64022;53.652;9.792;2022-10-29T07:05:42;15.23;;;5.38;;
30243;SDS011;64022;53.652;9.792;2022-10-29T07:08:07;11.30;;;5.37;;
30243;SDS011;64022;53.652;9.792;2022-10-29T07:10:34;14.65;;;6.13;;
30243;SDS011;64022;53.652;9.792;2022-10-29T07:12:59;15.23;;;5.47;;
30243;SDS011;64022;53.652;9.792;2022-10-29T07:15:26;12.13;;;5.40;;
30243;SDS011;64022;53.652;9.792;2022-10-29T07:17:59;13.23;;;5.78;;
30243;SDS011;64022;53.652;9.792;2022-10-29T07:20:26;13.88;;;5.28;;
30243;SDS011;64022;53.652;9.792;2022-10-29T07:22:53;16.25;;;6.65;;
30243;SDS011;64022;53.652;9.792;2022-10-29T07:25:21;14.32;;;6.15;;
30243;SDS011;64022;53.652;9.792;2022-10-29T07:27:47;15.40;;;5.43;;
30243;SDS011;64022;53.652;9.792;2022-10-29T07:30:12;14.57;;;5.10;;
30243;SDS011;64022;53.652;9.792;2022-10-29T07:32:38;19.83;;;4.80;;
30243;SDS011;64022;53.652;9.792;2022-10-29T07:35:03;12.77;;;5.13;;
30243;SDS011;64022;53.652;9.792;2022-10-29T07:37:29;12.33;;;5.10;;
30243;SDS011;64022;53.652;9.792;2022-10-29T07:39:55;10.93;;;5.07;;
30243;SDS011;64022;53.652;9.792;2022-10-29T07:42:20;11.20;;;4.57;;
30243;SDS011;64022;53.652;9.792;2022-10-29T07:44:46;9.73;;;4.80;;
30243;SDS011;64022;53.652;9.792;2022-10-29T07:47:11;12.77;;;5.20;;
30243;SDS011;64022;53.652;9.792;2022-10-29T07:49:37;10.27;;;5.30;;
30243;SDS011;64022;53.652;9.792;2022-10-29T07:52:02;10.93;;;5.37;;
30243;SDS011;64022;53.652;9.792;2022-10-29T07:54:28;14.30;;;5.47;;
30243;SDS011;64022;53.652;9.792;2022-10-29T07:56:53;13.13;;;5.07;;
30243;SDS011;64022;53.652;9.792;2022-10-29T07:59:19;9.63;;;5.87;;
30243;SDS011;64022;53.652;9.792;2022-10-29T08:01:45;10.57;;;5.03;;
30243;SDS011;64022;53.652;9.792;2022-10-29T08:04:11;9.88;;;4.80;;
30243;SDS011;64022;53.652;9.792;2022-10-29T08:06:37;12.00;;;5.10;;
30243;SDS011;64022;53.652;9.792;2022-10-29T08:09:03;8.97;;;4.93;;
30243;SDS011;64022;53.652;9.792;2022-10-29T08:11:31;13.50;;;5.23;;
30243;SDS011;64022;53.652;9.792;2022-10-29T08:13:58;10.77;;;5.35;;
30243;SDS011;64022;53.652;9.792;2022-10-29T08:16:23;10.48;;;5.40;;
30243;SDS011;64022;53.652;9.792;2022-10-29T08:18:49;15.00;;;5.63;;
30243;SDS011;64022;53.652;9.792;2022-10-29T08:21:15;10.87;;;5.57;;
30243;SDS011;64022;53.652;9.792;2022-10-29T08:26:07;10.98;;;5.10;;
30243;SDS011;64022;53.652;9.792;2022-10-29T08:28:32;14.20;;;4.80;;
30243;SDS011;64022;53.652;9.792;2022-10-29T08:30:58;10.60;;;5.57;;
30243;SDS011;64022;53.652;9.792;2022-10-29T08:33:23;8.77;;;4.93;;
30243;SDS011;64022;53.652;9.792;2022-10-29T08:35:49;12.67;;;5.03;;
30243;SDS011;64022;53.652;9.792;2022-10-29T08:38:14;10.90;;;5.67;;
30243;SDS011;64022;53.652;9.792;2022-10-29T08:40:55;12.13;;;5.77;;
30243;SDS011;64022;53.652;9.792;2022-10-29T08:46:53;9.63;;;5.28;;
30243;SDS011;64022;53.652;9.792;2022-10-29T08:49:29;11.88;;;6.10;;
30243;SDS011;64022;53.652;9.792;2022-10-29T08:52:00;8.93;;;5.43;;
30243;SDS011;64022;53.652;9.792;2022-10-29T08:54:31;12.75;;;5.43;;
30243;SDS011;64022;53.652;9.792;2022-10-29T08:57:04;9.82;;;5.05;;
30243;SDS011;64022;53.652;9.792;2022-10-29T08:59:45;11.75;;;5.43;;
30243;SDS011;64022;53.652;9.792;2022-10-29T09:02:24;10.52;;;5.05;;
30243;SDS011;64022;53.652;9.792;2022-10-29T09:04:50;11.23;;;5.33;;
30243;SDS011;64022;53.652;9.792;2022-10-29T09:12:46;12.27;;;6.20;;
30243;SDS011;64022;53.652;9.792;2022-10-29T09:26:04;11.30;;;6.90;;
30243;SDS011;64022;53.652;9.792;2022-10-29T09:31:43;12.75;;;6.40;;
30243;SDS011;64022;53.652;9.792;2022-10-29T09:36:54;11.50;;;5.90;;
30243;SDS011;64022;53.652;9.792;2022-10-29T09:39:26;13.15;;;6.85;;
30243;SDS011;64022;53.652;9.792;2022-10-29T09:42:11;10.50;;;6.35;;
30243;SDS011;64022;53.652;9.792;2022-10-29T09:50:05;13.02;;;7.07;;
30243;SDS011;64022;53.652;9.792;2022-10-29T09:52:46;12.80;;;6.88;;
30243;SDS011;64022;53.652;9.792;2022-10-29T09:55:17;10.75;;;7.15;;
30243;SDS011;64022;53.652;9.792;2022-10-29T09:57:49;11.77;;;7.20;;
30243;SDS011;64022;53.652;9.792;2022-10-29T10:00:20;11.48;;;6.60;;
30243;SDS011;64022;53.652;9.792;2022-10-29T10:02:49;14.48;;;7.45;;
30243;SDS011;64022;53.652;9.792;2022-10-29T10:05:29;12.13;;;7.30;;
30243;SDS011;64022;53.652;9.792;2022-10-29T10:08:17;10.18;;;6.57;;
30243;SDS011;64022;53.652;9.792;2022-10-29T10:13:25;10.20;;;6.40;;
30243;SDS011;64022;53.652;9.792;2022-10-29T10:15:54;10.35;;;6.72;;
30243;SDS011;64022;53.652;9.792;2022-10-29T10:18:22;10.15;;;6.72;;
30243;SDS011;64022;53.652;9.792;2022-10-29T10:23:48;12.68;;;7.30;;
30243;SDS011;64022;53.652;9.792;2022-10-29T10:29:18;11.73;;;7.72;;
30243;SDS011;64022;53.652;9.792;2022-10-29T10:31:49;13.13;;;7.53;;
30243;SDS011;64022;53.652;9.792;2022-10-29T10:34:35;11.98;;;7.28;;
30243;SDS011;64022;53.652;9.792;2022-10-29T10:39:37;12.00;;;7.20;;
30243;SDS011;64022;53.652;9.792;2022-10-29T10:44:51;10.23;;;7.20;;
30243;SDS011;64022;53.652;9.792;2022-10-29T10:47:27;11.07;;;7.13;;
30243;SDS011;64022;53.652;9.792;2022-10-29T10:50:08;9.85;;;7.32;;
30243;SDS011;64022;53.652;9.792;2022-10-29T10:52:36;10.63;;;7.28;;
30243;SDS011;64022;53.652;9.792;2022-10-29T10:55:05;11.43;;;7.90;;
30243;SDS011;64022;53.652;9.792;2022-10-29T10:58:03;12.45;;;7.47;;
30243;SDS011;64022;53.652;9.792;2022-10-29T11:00:44;11.60;;;7.82;;
30243;SDS011;64022;53.652;9.792;2022-10-29T11:03:23;12.48;;;7.50;;
30243;SDS011;64022;53.652;9.792;2022-10-29T11:06:02;12.75;;;8.00;;
30243;SDS011;64022;53.652;9.792;2022-10-29T11:08:32;11.48;;;7.80;;
30243;SDS011;64022;53.652;9.792;2022-10-29T11:11:16;12.98;;;8.07;;
30243;SDS011;64022;53.652;9.792;2022-10-29T11:13:46;13.75;;;8.43;;
30243;SDS011;64022;53.652;9.792;2022-10-29T11:16:30;12.60;;;7.70;;
30243;SDS011;64022;53.652;9.792;2022-10-29T11:19:13;15.57;;;8.27;;
30243;SDS011;64022;53.652;9.792;2022-10-29T11:25:12;13.90;;;7.80;;
30243;SDS011;64022;53.652;9.792;2022-10-29T11:27:46;8.85;;;6.68;;
30243;SDS011;64022;53.652;9.792;2022-10-29T11:30:19;10.80;;;7.93;;
30243;SDS011;64022;53.652;9.792;2022-10-29T11:32:49;11.13;;;8.17;;
30243;SDS011;64022;53.652;9.792;2022-10-29T11:35:39;12.52;;;8.32;;
30243;SDS011;64022;53.652;9.792;2022-10-29T11:38:23;11.05;;;7.97;;
30243;SDS011;64022;53.652;9.792;2022-10-29T11:43:57;10.57;;;8.02;;
30243;SDS011;64022;53.652;9.792;2022-10-29T11:52:08;11.02;;;7.30;;
30243;SDS011;64022;53.652;9.792;2022-10-29T12:00:19;13.77;;;7.90;;
30243;SDS011;64022;53.652;9.792;2022-10-29T12:03:01;13.07;;;8.02;;
30243;SDS011;64022;53.652;9.792;2022-10-29T12:05:59;11.60;;;7.40;;
30243;SDS011;64022;53.652;9.792;2022-10-29T12:09:13;10.98;;;7.97;;
30243;SDS011;64022;53.652;9.792;2022-10-29T12:24:57;10.15;;;6.85;;
30243;SDS011;64022;53.652;9.792;2022-10-29T12:30:17;10.95;;;7.60;;
30243;SDS011;64022;53.652;9.792;2022-10-29T12:38:03;11.20;;;7.88;;
30243;SDS011;64022;53.652;9.792;2022-10-29T12:40:50;11.40;;;8.10;;
30243;SDS011;64022;53.652;9.792;2022-10-29T12:43:27;11.52;;;7.40;;
30243;SDS011;64022;53.652;9.792;2022-10-29T12:52:01;10.30;;;6.80;;
30243;SDS011;64022;53.652;9.792;2022-10-29T12:54:36;10.00;;;7.47;;
30243;SDS011;64022;53.652;9.792;2022-10-29T12:57:51;12.95;;;8.32;;
30243;SDS011;64022;53.652;9.792;2022-10-29T12:59:53;9.52;;;7.05;;
30243;SDS011;64022;53.652;9.792;2022-10-29T13:07:33;9.45;;;7.47;;
30243;SDS011;64022;53.652;9.792;2022-10-29T13:15:26;10.18;;;7.43;;
30243;SDS011;64022;53.652;9.792;2022-10-29T13:17:54;9.50;;;6.93;;
30243;SDS011;64022;53.652;9.792;2022-10-29T13:20:25;9.73;;;6.97;;
30243;SDS011;64022;53.652;9.792;2022-10-29T13:22:59;10.30;;;6.95;;
30243;SDS011;64022;53.652;9.792;2022-10-29T13:30:37;11.38;;;7.88;;
30243;SDS011;64022;53.652;9.792;2022-10-29T13:35:55;8.20;;;6.63;;
30243;SDS011;64022;53.652;9.792;2022-10-29T13:38:41;12.43;;;7.32;;
30243;SDS011;64022;53.652;9.792;2022-10-29T13:41:17;11.60;;;6.57;;
30243;SDS011;64022;53.652;9.792;2022-10-29T13:46:48;9.93;;;6.45;;
30243;SDS011;64022;53.652;9.792;2022-10-29T13:49:32;9.63;;;6.75;;
30243;SDS011;64022;53.652;9.792;2022-10-29T14:08:33;9.95;;;7.32;;
30243;SDS011;64022;53.652;9.792;2022-10-29T14:10:29;9.85;;;6.55;;
30243;SDS011;64022;53.652;9.792;2022-10-29T14:13:27;9.73;;;6.93;;
30243;SDS011;64022;53.652;9.792;2022-10-29T14:16:07;9.80;;;6.75;;
30243;SDS011;64022;53.652;9.792;2022-10-29T14:21:23;10.07;;;6.72;;
30243;SDS011;64022;53.652;9.792;2022-10-29T14:24:03;11.00;;;7.18;;
30243;SDS011;64022;53.652;9.792;2022-10-29T14:26:31;10.00;;;6.97;;
30243;SDS011;64022;53.652;9.792;2022-10-29T14:32:03;9.52;;;7.63;;
30243;SDS011;64022;53.652;9.792;2022-10-29T14:34:39;9.30;;;7.13;;
30243;SDS011;64022;53.652;9.792;2022-10-29T14:37:07;10.00;;;7.07;;
30243;SDS011;64022;53.652;9.792;2022-10-29T14:39:44;11.73;;;7.57;;
30243;SDS011;64022;53.652;9.792;2022-10-29T14:42:17;9.82;;;7.50;;
30243;SDS011;64022;53.652;9.792;2022-10-29T14:44:50;9.95;;;7.28;;
30243;SDS011;64022;53.652;9.792;2022-10-29T14:50:24;9.57;;;7.35;;
30243;SDS011;64022;53.652;9.792;2022-10-29T14:52:52;12.00;;;7.22;;
30243;SDS011;64022;53.652;9.792;2022-10-29T14:55:33;9.70;;;7.10;;
30243;SDS011;64022;53.652;9.792;2022-10-29T14:58:23;12.20;;;7.22;;
30243;SDS011;64022;53.652;9.792;2022-10-29T15:03:17;10.53;;;7.20;;
30243;SDS011;64022;53.652;9.792;2022-10-29T15:05:46;10.93;;;7.32;;
30243;SDS011;64022;53.652;9.792;2022-10-29T15:08:13;9.98;;;7.35;;
30243;SDS011;64022;53.652;9.792;2022-10-29T15:10:49;11.93;;;7.30;;
30243;SDS011;64022;53.652;9.792;2022-10-29T15:15:58;10.35;;;7.45;;
30243;SDS011;64022;53.652;9.792;2022-10-29T15:18:27;8.90;;;6.88;;
30243;SDS011;64022;53.652;9.792;2022-10-29T15:20:54;11.20;;;7.80;;
30243;SDS011;64022;53.652;9.792;2022-10-29T15:23:25;10.75;;;7.63;;
30243;SDS011;64022;53.652;9.792;2022-10-29T15:26:05;10.50;;;7.30;;
30243;SDS011;64022;53.652;9.792;2022-10-29T15:28:38;9.43;;;7.10;;
30243;SDS011;64022;53.652;9.792;2022-10-29T15:31:04;11.35;;;7.57;;
30243;SDS011;64022;53.652;9.792;2022-10-29T15:33:31;9.98;;;7.25;;
30243;SDS011;64022;53.652;9.792;2022-10-29T15:36:02;9.90;;;7.15;;
30243;SDS011;64022;53.652;9.792;2022-10-29T15:41:16;10.23;;;7.80;;
30243;SDS011;64022;53.652;9.792;2022-10-29T15:44:00;8.32;;;6.47;;
30243;SDS011;64022;53.652;9.792;2022-10-29T15:48:52;9.15;;;6.70;;
30243;SDS011;64022;53.652;9.792;2022-10-29T15:51:23;11.93;;;6.97;;
30243;SDS011;64022;53.652;9.792;2022-10-29T15:53:50;9.50;;;7.47;;
30243;SDS011;64022;53.652;9.792;2022-10-29T15:56:18;11.68;;;7.57;;
30243;SDS011;64022;53.652;9.792;2022-10-29T15:58:44;8.97;;;7.00;;
30243;SDS011;64022;53.652;9.792;2022-10-29T16:01:11;10.77;;;6.82;;
30243;SDS011;64022;53.652;9.792;2022-10-29T16:03:38;9.70;;;7.00;;
30243;SDS011;64022;53.652;9.792;2022-10-29T16:06:04;11.03;;;7.17;;
30243;SDS011;64022;53.652;9.792;2022-10-29T16:08:36;11.70;;;6.80;;
30243;SDS011;64022;53.652;9.792;2022-10-29T16:11:02;24.20;;;8.15;;
30243;SDS011;64022;53.652;9.792;2022-10-29T16:13:32;18.70;;;7.25;;
30243;SDS011;64022;53.652;9.792;2022-10-29T16:15:58;19.50;;;7.43;;
30243;SDS011;64022;53.652;9.792;2022-10-29T16:18:24;17.70;;;7.17;;
30243;SDS011;64022;53.652;9.792;2022-10-29T16:20:50;20.00;;;7.43;;
30243;SDS011;64022;53.652;9.792;2022-10-29T16:23:20;17.30;;;7.15;;
30243;SDS011;64022;53.652;9.792;2022-10-29T16:25:46;12.07;;;6.20;;
30243;SDS011;64022;53.652;9.792;2022-10-29T16:28:11;12.63;;;6.77;;
30243;SDS011;64022;53.652;9.792;2022-10-29T16:30:37;10.90;;;5.93;;
30243;SDS011;64022;53.652;9.792;2022-10-29T16:33:02;14.73;;;6.20;;
30243;SDS011;64022;53.652;9.792;2022-10-29T16:35:28;13.57;;;5.80;;
30243;SDS011;64022;53.652;9.792;2022-10-29T16:37:54;14.10;;;6.60;;
30243;SDS011;64022;53.652;9.792;2022-10-29T16:40:24;12.27;;;5.25;;
30243;SDS011;64022;53.652;9.792;2022-10-29T16:42:51;12.82;;;6.10;;
30243;SDS011;64022;53.652;9.792;2022-10-29T16:45:21;10.73;;;5.97;;
30243;SDS011;64022;53.652;9.792;2022-10-29T16:47:48;9.32;;;5.68;;
30243;SDS011;64022;53.652;9.792;2022-10-29T16:50:21;8.05;;;5.05;;
30243;SDS011;64022;53.652;9.792;2022-10-29T16:52:55;9.68;;;5.50;;
30243;SDS011;64022;53.652;9.792;2022-10-29T16:55:20;12.35;;;6.03;;
30243;SDS011;64022;53.652;9.792;2022-10-29T16:57:46;10.90;;;6.10;;
30243;SDS011;64022;53.652;9.792;2022-10-29T17:00:11;9.27;;;5.00;;
30243;SDS011;64022;53.652;9.792;2022-10-29T17:02:37;8.95;;;5.38;;
30243;SDS011;64022;53.652;9.792;2022-10-29T17:07:30;9.98;;;5.25;;
30243;SDS011;64022;53.652;9.792;2022-10-29T17:09:56;9.23;;;5.33;;
30243;SDS011;64022;53.652;9.792;2022-10-29T17:12:21;8.80;;;5.33;;
30243;SDS011;64022;53.652;9.792;2022-10-29T17:14:47;8.70;;;5.23;;
30243;SDS011;64022;53.652;9.792;2022-10-29T17:17:13;8.37;;;5.67;;
30243;SDS011;64022;53.652;9.792;2022-10-29T17:19:38;9.10;;;5.30;;
30243;SDS011;64022;53.652;9.792;2022-10-29T17:22:04;9.77;;;5.37;;
30243;SDS011;64022;53.652;9.792;2022-10-29T17:24:29;9.97;;;5.37;;
30243;SDS011;64022;53.652;9.792;2022-10-29T17:26:55;11.00;;;5.37;;
30243;SDS011;64022;53.652;9.792;2022-10-29T17:29:20;7.53;;;4.97;;
30243;SDS011;64022;53.652;9.792;2022-10-29T17:31:46;6.77;;;5.00;;
30243;SDS011;64022;53.652;9.792;2022-10-29T17:34:12;6.60;;;4.60;;
30243;SDS011;64022;53.652;9.792;2022-10-29T17:36:37;8.47;;;5.10;;
30243;SDS011;64022;53.652;9.792;2022-10-29T17:39:07;7.05;;;4.25;;
30243;SDS011;64022;53.652;9.792;2022-10-29T17:41:32;12.30;;;4.63;;
30243;SDS011;64022;53.652;9.792;2022-10-29T17:43:58;6.80;;;5.17;;
30243;SDS011;64022;53.652;9.792;2022-10-29T17:46:23;6.30;;;4.57;;
30243;SDS011;64022;53.652;9.792;2022-10-29T17:48:53;6.67;;;4.37;;
30243;SDS011;64022;53.652;9.792;2022-10-29T17:51:19;6.53;;;4.60;;
30243;SDS011;64022;53.652;9.792;2022-10-29T17:53:45;8.20;;;4.90;;